createdAt,value
2019-05-06T00:00:04.765Z,3.63
2019-05-06T00:01:09.243Z,3.50
2019-05-06T00:02:16.664Z,3.43
2019-05-06T00:03:21.117Z,4.07
2019-05-06T00:04:25.530Z,3.30
2019-05-06T00:05:30.182Z,3.50
2019-05-06T00:06:34.920Z,3.60
2019-05-06T00:07:39.334Z,3.47
2019-05-06T00:08:44.055Z,4.03
2019-05-06T00:09:48.569Z,4.20
2019-05-06T00:10:54.250Z,2.90
2019-05-06T00:12:17.969Z,2.90
2019-05-06T00:13:24.177Z,3.10
2019-05-06T00:14:28.485Z,2.87
2019-05-06T00:15:34.342Z,3.50
2019-05-06T00:16:43.878Z,3.00
2019-05-06T00:17:48.160Z,3.53
2019-05-06T00:18:54.070Z,3.60
2019-05-06T00:19:58.719Z,3.23
2019-05-06T00:21:04.620Z,3.00
2019-05-06T00:22:09.258Z,3.93
2019-05-06T00:23:30.840Z,4.43
2019-05-06T00:24:44.492Z,4.07
2019-05-06T00:26:06.988Z,2.70
2019-05-06T00:27:16.774Z,3.30
2019-05-06T00:28:25.413Z,3.03
2019-05-06T00:29:31.677Z,3.10
2019-05-06T00:30:36.112Z,3.57
2019-05-06T00:31:40.501Z,3.83
2019-05-06T00:32:44.994Z,3.00
2019-05-06T00:33:49.628Z,3.40
2019-05-06T00:34:54.676Z,3.33
2019-05-06T00:36:00.531Z,3.17
2019-05-06T00:37:05.345Z,2.93
2019-05-06T00:38:09.784Z,4.10
2019-05-06T00:39:35.788Z,3.30
2019-05-06T00:40:43.591Z,3.03
2019-05-06T00:41:54.199Z,3.87
2019-05-06T00:43:06.782Z,3.10
2019-05-06T00:44:11.690Z,2.60
2019-05-06T00:45:16.529Z,3.27
2019-05-06T00:46:20.917Z,2.90
2019-05-06T00:47:25.391Z,2.80
2019-05-06T00:48:29.850Z,4.20
2019-05-06T00:49:34.970Z,2.80
2019-05-06T00:50:39.380Z,3.00
2019-05-06T00:51:44.023Z,3.53
2019-05-06T00:52:48.934Z,3.70
2019-05-06T00:54:09.327Z,3.73
2019-05-06T00:55:13.842Z,3.53
2019-05-06T00:56:18.435Z,3.50
2019-05-06T00:57:26.793Z,4.27
2019-05-06T00:58:31.169Z,3.43
2019-05-06T00:59:37.073Z,3.10
2019-05-06T01:00:41.438Z,4.23
2019-05-06T01:01:45.852Z,2.90
2019-05-06T01:02:50.268Z,3.50
2019-05-06T01:03:54.563Z,3.20
2019-05-06T01:04:59.059Z,4.80
2019-05-06T01:06:03.980Z,4.43
2019-05-06T01:07:08.795Z,4.97
2019-05-06T01:08:14.153Z,4.00
2019-05-06T01:09:20.778Z,3.80
2019-05-06T01:10:25.508Z,3.00
2019-05-06T01:11:30.042Z,3.83
2019-05-06T01:12:34.986Z,2.90
2019-05-06T01:13:50.565Z,2.90
2019-05-06T01:14:55.436Z,3.53
2019-05-06T01:15:59.805Z,3.10
2019-05-06T01:17:06.252Z,4.00
2019-05-06T01:18:10.857Z,2.80
2019-05-06T01:19:15.373Z,3.37
2019-05-06T01:20:19.736Z,3.00
2019-05-06T01:21:24.730Z,3.57
2019-05-06T01:22:29.107Z,3.00
2019-05-06T01:23:34.244Z,3.33
2019-05-06T01:24:38.792Z,2.77
2019-05-06T01:25:43.787Z,2.70
2019-05-06T01:26:48.363Z,3.20
2019-05-06T01:27:54.000Z,2.90
2019-05-06T01:29:00.451Z,2.77
2019-05-06T01:30:07.077Z,2.80
2019-05-06T01:31:13.838Z,3.20
2019-05-06T01:32:17.709Z,2.87
2019-05-06T01:33:24.129Z,3.10
2019-05-06T01:34:28.524Z,3.03
2019-05-06T01:35:35.235Z,3.07
2019-05-06T01:36:40.020Z,4.37
2019-05-06T01:37:46.199Z,3.27
2019-05-06T01:39:13.939Z,3.10
2019-05-06T01:40:35.323Z,2.47
2019-05-06T01:42:04.547Z,2.43
2019-05-06T01:43:14.559Z,2.80
2019-05-06T01:44:19.157Z,3.90
2019-05-06T01:45:23.793Z,3.90
2019-05-06T01:46:28.264Z,4.37
2019-05-06T01:47:34.452Z,2.53
2019-05-06T01:48:47.425Z,3.83
2019-05-06T01:49:53.677Z,3.50
2019-05-06T01:50:57.897Z,3.43
2019-05-06T01:52:05.077Z,3.67
2019-05-06T01:53:09.510Z,3.40
2019-05-06T01:54:14.314Z,3.10
2019-05-06T01:55:18.794Z,4.73
2019-05-06T01:56:24.143Z,4.27
2019-05-06T01:57:28.614Z,3.63
2019-05-06T01:58:33.554Z,3.30
2019-05-06T01:59:38.308Z,2.97
2019-05-06T02:00:43.733Z,2.87
2019-05-06T02:01:58.003Z,4.10
2019-05-06T02:02:54.808Z,3.50
2019-05-06T02:04:01.034Z,3.47
2019-05-06T02:05:05.762Z,4.93
2019-05-06T02:06:10.456Z,3.20
2019-05-06T02:07:14.787Z,3.80
2019-05-06T02:08:19.115Z,4.70
2019-05-06T02:09:24.642Z,3.27
2019-05-06T02:10:30.800Z,4.20
2019-05-06T02:11:35.453Z,4.00
2019-05-06T02:12:39.759Z,3.10
2019-05-06T02:13:44.409Z,3.20
2019-05-06T02:14:48.929Z,2.77
2019-05-06T02:15:54.826Z,2.90
2019-05-06T02:16:59.381Z,3.53
2019-05-06T02:18:04.219Z,2.93
2019-05-06T02:19:08.780Z,4.20
2019-05-06T02:20:13.765Z,3.30
2019-05-06T02:21:37.300Z,3.43
2019-05-06T02:23:04.171Z,3.10
2019-05-06T02:24:13.503Z,3.57
2019-05-06T02:25:21.549Z,3.30
2019-05-06T02:26:25.968Z,3.53
2019-05-06T02:27:30.509Z,3.60
2019-05-06T02:28:35.203Z,2.87
2019-05-06T02:29:45.496Z,2.77
2019-05-06T02:31:14.622Z,2.97
2019-05-06T02:32:45.879Z,2.83
2019-05-06T02:34:05.117Z,3.73
2019-05-06T02:35:26.264Z,3.63
2019-05-06T02:36:55.104Z,4.50
2019-05-06T02:37:59.189Z,4.43
2019-05-06T02:39:04.188Z,3.63
2019-05-06T02:40:24.736Z,2.53
2019-05-06T02:41:28.815Z,4.83
2019-05-06T02:42:33.828Z,5.47
2019-05-06T02:43:38.660Z,4.33
2019-05-06T02:44:44.144Z,5.57
2019-05-06T02:45:49.202Z,3.83
2019-05-06T02:47:02.897Z,3.37
2019-05-06T02:48:33.563Z,4.23
2019-05-06T02:49:44.272Z,4.37
2019-05-06T02:51:04.051Z,4.77
2019-05-06T02:52:08.607Z,4.43
2019-05-06T02:53:13.485Z,5.33
2019-05-06T02:54:17.980Z,5.00
2019-05-06T02:55:23.557Z,4.53
2019-05-06T02:56:29.923Z,3.33
2019-05-06T02:57:35.005Z,4.40
2019-05-06T02:58:39.372Z,2.87
2019-05-06T02:59:45.300Z,4.50
2019-05-06T03:00:49.625Z,5.30
2019-05-06T03:01:54.185Z,4.73
2019-05-06T03:02:58.625Z,5.37
2019-05-06T03:04:04.447Z,4.50
2019-05-06T03:05:09.227Z,4.87
2019-05-06T03:06:13.803Z,4.20
2019-05-06T03:07:19.986Z,5.20
2019-05-06T03:08:24.272Z,5.00
2019-05-06T03:09:28.725Z,4.60
2019-05-06T03:10:33.143Z,4.40
2019-05-06T03:11:37.721Z,3.93
2019-05-06T03:12:43.104Z,6.50
2019-05-06T03:13:47.641Z,3.80
2019-05-06T03:14:53.267Z,5.33
2019-05-06T03:15:58.020Z,3.10
2019-05-06T03:17:03.827Z,2.93
2019-05-06T03:18:08.422Z,4.63
2019-05-06T03:19:13.670Z,4.30
2019-05-06T03:20:35.919Z,4.40
2019-05-06T03:23:14.200Z,4.97
2019-05-06T03:24:27.779Z,2.90
2019-05-06T03:25:34.447Z,3.60
2019-05-06T03:26:38.808Z,3.33
2019-05-06T03:27:47.001Z,2.70
2019-05-06T03:28:53.308Z,3.87
2019-05-06T03:29:56.671Z,3.13
2019-05-06T03:31:06.077Z,2.67
2019-05-06T03:32:07.965Z,2.87
2019-05-06T03:33:46.741Z,3.47
2019-05-06T03:34:38.427Z,3.57
2019-05-06T03:35:42.029Z,4.27
2019-05-06T03:36:34.680Z,3.33
2019-05-06T03:37:37.553Z,4.10
2019-05-06T03:38:43.791Z,2.90
2019-05-06T03:39:48.189Z,3.27
2019-05-06T03:40:54.084Z,2.77
2019-05-06T03:41:58.408Z,3.40
2019-05-06T03:43:04.536Z,4.30
2019-05-06T03:44:08.896Z,2.90
2019-05-06T03:45:33.291Z,5.60
2019-05-06T03:46:54.232Z,4.90
2019-05-06T03:48:08.792Z,3.20
2019-05-06T03:49:13.654Z,2.77
2019-05-06T03:50:18.109Z,3.10
2019-05-06T03:51:23.288Z,3.50
2019-05-06T03:52:30.131Z,3.20
2019-05-06T03:53:36.282Z,3.43
2019-05-06T03:54:45.068Z,2.63
2019-05-06T03:55:50.299Z,2.60
2019-05-06T03:56:55.689Z,2.73
2019-05-06T03:58:03.623Z,3.63
2019-05-06T03:59:08.836Z,2.77
2019-05-06T04:00:16.108Z,2.67
2019-05-06T04:01:24.002Z,3.55
2019-05-06T04:02:28.508Z,2.90
2019-05-06T04:03:44.058Z,2.47
2019-05-06T04:04:39.023Z,2.73
2019-05-06T04:05:43.836Z,2.67
2019-05-06T04:06:48.384Z,2.53
2019-05-06T04:07:55.617Z,2.40
2019-05-06T04:09:00.161Z,2.62
2019-05-06T04:10:05.555Z,3.40
2019-05-06T04:11:13.655Z,2.47
2019-05-06T04:12:18.599Z,4.40
2019-05-06T04:13:23.266Z,2.87
2019-05-06T04:14:28.493Z,3.45
2019-05-06T04:15:54.051Z,2.40
2019-05-06T04:17:06.959Z,2.95
2019-05-06T04:18:12.523Z,3.07
2019-05-06T04:19:23.818Z,4.58
2019-05-06T04:20:49.486Z,5.10
2019-05-06T04:21:59.950Z,4.87
2019-05-06T04:23:33.061Z,5.53
2019-05-06T04:24:44.038Z,5.07
2019-05-06T04:25:59.342Z,5.20
2019-05-06T04:27:23.337Z,5.33
2019-05-06T04:28:33.960Z,5.53
2019-05-06T04:29:37.156Z,5.37
2019-05-06T04:30:42.825Z,5.13
2019-05-06T04:31:47.715Z,5.70
2019-05-06T04:32:53.175Z,5.90
2019-05-06T04:34:09.918Z,6.10
2019-05-06T04:35:05.232Z,6.23
2019-05-06T04:36:12.978Z,6.23
2019-05-06T04:37:16.183Z,6.97
2019-05-06T04:38:23.244Z,6.80
2019-05-06T04:39:26.562Z,6.40
2019-05-06T04:40:33.157Z,6.83
2019-05-06T04:41:37.264Z,6.80
2019-05-06T04:42:44.279Z,6.43
2019-05-06T04:43:47.769Z,6.73
2019-05-06T04:44:53.965Z,6.60
2019-05-06T04:45:58.328Z,6.30
2019-05-06T04:47:05.479Z,6.03
2019-05-06T04:48:10.105Z,6.10
2019-05-06T04:49:15.270Z,5.80
2019-05-06T04:50:19.999Z,6.03
2019-05-06T04:51:25.027Z,5.87
2019-05-06T04:52:29.621Z,5.90
2019-05-06T04:53:34.232Z,5.63
2019-05-06T04:54:38.819Z,5.37
2019-05-06T04:55:44.127Z,6.07
2019-05-06T04:56:48.601Z,5.23
2019-05-06T04:57:54.200Z,5.00
2019-05-06T04:58:58.586Z,6.00
2019-05-06T05:00:04.353Z,5.93
2019-05-06T05:01:12.129Z,6.33
2019-05-06T05:02:16.914Z,5.83
2019-05-06T05:03:23.123Z,6.30
2019-05-06T05:04:32.235Z,6.05
2019-05-06T05:05:34.214Z,5.50
2019-05-06T05:06:38.557Z,5.60
2019-05-06T05:07:44.752Z,6.20
2019-05-06T05:08:49.084Z,5.57
2019-05-06T05:10:03.257Z,6.10
2019-05-06T05:11:38.123Z,6.03
2019-05-06T05:13:07.713Z,5.70
2019-05-06T05:14:34.010Z,5.57
2019-05-06T05:15:52.475Z,6.03
2019-05-06T05:17:16.044Z,5.97
2019-05-06T05:18:32.071Z,6.53
2019-05-06T05:19:37.333Z,6.70
2019-05-06T05:20:46.278Z,6.20
2019-05-06T05:21:47.726Z,6.47
2019-05-06T05:22:52.835Z,6.63
2019-05-06T05:23:57.548Z,6.30
2019-05-06T05:25:03.407Z,6.70
2019-05-06T05:26:09.062Z,6.43
2019-05-06T05:27:13.707Z,6.63
2019-05-06T05:28:18.250Z,6.60
2019-05-06T05:29:23.877Z,6.87
2019-05-06T05:30:28.274Z,7.10
2019-05-06T05:31:33.362Z,6.97
2019-05-06T05:32:38.078Z,6.63
2019-05-06T05:33:42.708Z,6.73
2019-05-06T05:34:47.054Z,6.43
2019-05-06T05:35:52.587Z,6.80
2019-05-06T05:36:57.319Z,7.00
2019-05-06T05:38:03.033Z,6.57
2019-05-06T05:39:08.222Z,7.07
2019-05-06T05:40:13.160Z,6.53
2019-05-06T05:41:17.557Z,6.77
2019-05-06T05:42:49.103Z,6.60
2019-05-06T05:43:57.836Z,6.30
2019-05-06T05:45:02.806Z,6.90
2019-05-06T05:46:08.011Z,7.17
2019-05-06T05:47:12.875Z,6.43
2019-05-06T05:48:35.198Z,6.97
2019-05-06T05:49:58.686Z,7.23
2019-05-06T05:51:03.414Z,6.73
2019-05-06T05:52:08.281Z,6.53
2019-05-06T05:53:13.254Z,6.97
2019-05-06T05:54:17.958Z,6.70
2019-05-06T05:55:22.585Z,6.80
2019-05-06T05:56:26.938Z,6.90
2019-05-06T05:57:32.228Z,6.93
2019-05-06T05:58:36.899Z,7.17
2019-05-06T05:59:42.196Z,7.53
2019-05-06T06:00:46.703Z,7.50
2019-05-06T06:01:52.951Z,7.30
2019-05-06T06:02:57.682Z,7.33
2019-05-06T06:04:03.157Z,7.80
2019-05-06T06:05:08.335Z,7.60
2019-05-06T06:06:13.524Z,7.07
2019-05-06T06:07:17.918Z,7.70
2019-05-06T06:08:24.703Z,7.77
2019-05-06T06:09:32.878Z,7.70
2019-05-06T06:10:56.340Z,7.90
2019-05-06T06:12:03.576Z,7.67
2019-05-06T06:13:07.997Z,7.27
2019-05-06T06:14:33.306Z,7.40
2019-05-06T06:15:48.608Z,6.80
2019-05-06T06:17:03.305Z,7.07
2019-05-06T06:18:24.863Z,7.73
2019-05-06T06:19:38.800Z,7.20
2019-05-06T06:20:56.074Z,7.53
2019-05-06T06:22:05.678Z,7.53
2019-05-06T06:23:15.812Z,7.30
2019-05-06T06:24:24.343Z,6.30
2019-05-06T06:25:29.150Z,6.73
2019-05-06T06:26:34.075Z,7.27
2019-05-06T06:27:48.839Z,8.23
2019-05-06T06:28:53.714Z,7.67
2019-05-06T06:29:58.204Z,7.00
2019-05-06T06:31:12.846Z,7.17
2019-05-06T06:32:28.713Z,7.37
2019-05-06T06:33:54.810Z,7.63
2019-05-06T06:35:14.605Z,7.83
2019-05-06T06:36:28.024Z,6.83
2019-05-06T06:37:53.568Z,7.97
2019-05-06T06:39:02.214Z,8.47
2019-05-06T06:40:07.252Z,7.33
2019-05-06T06:41:12.151Z,7.53
2019-05-06T06:42:16.721Z,8.03
2019-05-06T06:43:23.703Z,7.00
2019-05-06T06:44:32.945Z,7.40
2019-05-06T06:45:37.572Z,7.37
2019-05-06T06:46:42.913Z,7.57
2019-05-06T06:47:47.783Z,7.70
2019-05-06T06:48:52.732Z,7.53
2019-05-06T06:49:57.408Z,7.23
2019-05-06T06:51:03.459Z,7.17
2019-05-06T06:52:11.521Z,7.13
2019-05-06T06:53:14.641Z,7.03
2019-05-06T06:54:19.012Z,7.67
2019-05-06T06:55:24.561Z,6.83
2019-05-06T06:56:47.830Z,8.33
2019-05-06T06:58:02.691Z,7.17
2019-05-06T06:59:12.830Z,7.00
2019-05-06T07:00:33.124Z,7.10
2019-05-06T07:01:42.309Z,7.67
2019-05-06T07:02:52.491Z,8.10
2019-05-06T07:04:17.352Z,6.77
2019-05-06T07:05:36.305Z,6.73
2019-05-06T07:06:44.110Z,7.33
2019-05-06T07:07:48.556Z,6.87
2019-05-06T07:08:52.965Z,6.57
2019-05-06T07:09:57.277Z,7.15
2019-05-06T07:11:02.237Z,6.60
2019-05-06T07:12:08.266Z,6.95
2019-05-06T07:13:14.241Z,6.75
2019-05-06T07:14:18.625Z,7.00
2019-05-06T07:15:23.176Z,6.40
2019-05-06T07:16:27.519Z,6.80
2019-05-06T07:17:32.793Z,6.72
2019-05-06T07:18:37.341Z,6.33
2019-05-06T07:19:46.143Z,6.25
2019-05-06T07:21:04.379Z,6.60
2019-05-06T07:22:07.250Z,6.85
2019-05-06T07:23:23.808Z,6.17
2019-05-06T07:24:28.156Z,5.83
2019-05-06T07:25:33.621Z,6.00
2019-05-06T07:26:43.702Z,6.50
2019-05-06T07:27:52.809Z,7.03
2019-05-06T07:28:56.558Z,6.72
2019-05-06T07:30:03.035Z,6.40
2019-05-06T07:31:20.866Z,6.58
2019-05-06T07:33:33.211Z,6.22
2019-05-06T07:34:37.153Z,6.75
2019-05-06T07:35:43.873Z,6.50
2019-05-06T07:36:47.870Z,6.37
2019-05-06T07:37:53.036Z,6.35
2019-05-06T07:38:57.526Z,6.33
2019-05-06T07:40:03.024Z,6.33
2019-05-06T07:46:45.213Z,6.00
2019-05-06T07:48:03.540Z,6.53
2019-05-06T07:49:08.247Z,6.55
2019-05-06T07:50:13.262Z,6.10
2019-05-06T07:51:17.676Z,6.30
2019-05-06T07:52:43.417Z,6.30
2019-05-06T07:53:47.869Z,6.40
2019-05-06T07:54:53.407Z,4.90
2019-05-06T07:55:58.009Z,5.70
2019-05-06T07:57:02.667Z,6.35
2019-05-06T07:58:07.830Z,5.92
2019-05-06T07:59:12.988Z,7.00
2019-05-06T08:00:19.114Z,5.50
2019-05-06T08:01:26.128Z,5.42
2019-05-06T08:02:32.066Z,6.22
2019-05-06T08:03:36.609Z,5.92
2019-05-06T08:04:42.066Z,6.42
2019-05-06T08:05:58.071Z,6.15
2019-05-06T08:06:52.922Z,6.72
2019-05-06T08:08:00.271Z,5.62
2019-05-06T08:09:08.075Z,5.72
2019-05-06T08:10:13.654Z,4.95
2019-05-06T08:11:18.314Z,5.33
2019-05-06T08:12:22.764Z,5.62
2019-05-06T08:13:27.681Z,5.58
2019-05-06T08:14:42.995Z,5.65
2019-05-06T08:15:47.894Z,5.37
2019-05-06T08:17:05.370Z,5.30
2019-05-06T08:18:12.029Z,5.15
2019-05-06T08:19:18.385Z,5.55
2019-05-06T08:20:24.499Z,4.60
2019-05-06T08:21:32.592Z,5.17
2019-05-06T08:23:06.066Z,5.45
2019-05-06T08:24:12.054Z,5.62
2019-05-06T08:25:16.712Z,5.72
2019-05-06T08:26:22.451Z,4.78
2019-05-06T08:27:27.559Z,5.37
2019-05-06T08:28:41.072Z,4.90
2019-05-06T08:29:39.463Z,4.92
2019-05-06T08:30:44.548Z,5.15
2019-05-06T08:31:49.130Z,5.58
2019-05-06T08:32:53.754Z,4.78
2019-05-06T08:33:58.994Z,5.75
2019-05-06T08:35:03.557Z,5.65
2019-05-06T08:36:14.114Z,5.05
2019-05-06T08:37:36.517Z,4.65
2019-05-06T08:39:02.528Z,4.30
2019-05-06T08:40:07.061Z,4.15
2019-05-06T08:41:13.176Z,4.97
2019-05-06T08:42:17.637Z,4.95
2019-05-06T08:43:23.435Z,4.35
2019-05-06T08:44:27.825Z,5.00
2019-05-06T08:45:33.899Z,4.50
2019-05-06T08:46:38.312Z,4.92
2019-05-06T08:47:44.964Z,4.83
2019-05-06T08:48:49.745Z,4.08
2019-05-06T08:50:03.483Z,4.00
2019-05-06T08:51:13.140Z,4.53
2019-05-06T08:52:19.106Z,3.77
2019-05-06T08:53:28.878Z,4.72
2019-05-06T08:54:37.580Z,3.70
2019-05-06T08:55:44.192Z,3.87
2019-05-06T08:56:48.604Z,3.80
2019-05-06T08:57:53.220Z,3.92
2019-05-06T08:59:00.002Z,3.85
2019-05-06T09:00:04.802Z,3.55
2019-05-06T09:01:12.452Z,3.17
2019-05-06T09:02:19.695Z,3.33
2019-05-06T09:03:24.169Z,3.62
2019-05-06T09:04:31.946Z,3.40
2019-05-06T09:05:35.962Z,2.95
2019-05-06T09:06:42.916Z,2.87
2019-05-06T09:07:47.973Z,3.27
2019-05-06T09:08:52.381Z,3.30
2019-05-06T09:09:56.790Z,3.08
2019-05-06T09:11:03.053Z,3.05
2019-05-06T09:12:07.650Z,3.00
2019-05-06T09:13:13.016Z,2.75
2019-05-06T09:14:17.752Z,2.67
2019-05-06T09:15:22.246Z,3.02
2019-05-06T09:16:26.793Z,2.50
2019-05-06T09:17:33.032Z,3.37
2019-05-06T09:18:37.404Z,2.87
2019-05-06T09:19:42.943Z,3.05
2019-05-06T09:20:48.455Z,2.60
2019-05-06T09:21:53.718Z,3.10
2019-05-06T09:22:59.260Z,3.67
2019-05-06T09:24:04.484Z,2.90
2019-05-06T09:25:10.228Z,3.08
2019-05-06T09:26:17.325Z,3.60
2019-05-06T09:27:42.188Z,2.85
2019-05-06T09:29:03.544Z,2.85
2019-05-06T09:30:13.130Z,2.75
2019-05-06T09:31:22.983Z,3.37
2019-05-06T09:32:36.182Z,2.42
2019-05-06T09:33:47.499Z,2.20
2019-05-06T09:34:56.784Z,2.10
2019-05-06T09:36:03.272Z,2.47
2019-05-06T09:37:14.831Z,3.05
2019-05-06T09:38:19.865Z,2.25
2019-05-06T09:39:26.158Z,2.90
2019-05-06T09:40:31.901Z,3.17
2019-05-06T09:41:36.482Z,2.62
2019-05-06T09:42:42.588Z,2.50
2019-05-06T09:43:47.496Z,2.47
2019-05-06T09:44:54.259Z,2.65
2019-05-06T09:46:18.285Z,3.25
2019-05-06T09:47:47.801Z,2.20
2019-05-06T09:49:26.241Z,2.75
2019-05-06T09:50:46.108Z,2.85
2019-05-06T09:51:49.382Z,3.52
2019-05-06T09:52:53.961Z,3.40
2019-05-06T09:54:06.973Z,3.10
2019-05-06T09:55:19.554Z,3.70
2019-05-06T09:56:29.049Z,3.17
2019-05-06T09:57:54.151Z,3.45
2019-05-06T10:00:28.957Z,3.52
2019-05-06T10:01:33.355Z,3.27
2019-05-06T10:02:38.165Z,3.37
2019-05-06T10:03:42.877Z,3.58
2019-05-06T10:04:47.604Z,3.83
2019-05-06T10:05:53.153Z,3.58
2019-05-06T10:07:00.018Z,3.22
2019-05-06T10:08:04.156Z,3.52
2019-05-06T10:09:15.724Z,3.08
2019-05-06T10:10:18.081Z,3.35
2019-05-06T10:11:22.497Z,3.20
2019-05-06T10:12:27.082Z,3.02
2019-05-06T10:13:32.719Z,3.67
2019-05-06T10:14:37.902Z,3.50
2019-05-06T10:15:42.939Z,3.33
2019-05-06T10:16:47.747Z,3.35
2019-05-06T10:18:07.980Z,3.20
2019-05-06T10:19:13.369Z,3.20
2019-05-06T10:20:22.192Z,2.58
2019-05-06T10:21:26.523Z,2.52
2019-05-06T10:22:32.474Z,2.65
2019-05-06T10:23:37.902Z,3.00
2019-05-06T10:24:43.365Z,2.95
2019-05-06T10:25:48.280Z,3.85
2019-05-06T10:26:57.296Z,3.33
2019-05-06T10:28:03.834Z,3.62
2019-05-06T10:29:37.483Z,3.05
2019-05-06T10:30:42.666Z,3.40
2019-05-06T10:31:52.405Z,3.60
2019-05-06T10:32:58.820Z,3.60
2019-05-06T10:34:14.280Z,2.90
2019-05-06T10:35:19.558Z,2.67
2019-05-06T10:36:26.752Z,2.47
2019-05-06T10:38:04.967Z,3.20
2019-05-06T10:39:12.640Z,2.65
2019-05-06T10:40:32.781Z,2.92
2019-05-06T10:41:42.073Z,2.75
2019-05-06T10:43:07.378Z,2.87
2019-05-06T10:44:37.520Z,3.25
2019-05-06T10:45:42.648Z,3.52
2019-05-06T10:46:47.241Z,3.20
2019-05-06T10:47:53.769Z,3.40
2019-05-06T10:48:58.256Z,3.10
2019-05-06T10:50:02.752Z,2.60
2019-05-06T10:51:17.049Z,3.50
2019-05-06T10:52:24.666Z,3.27
2019-05-06T10:53:32.968Z,3.50
2019-05-06T10:54:37.579Z,3.30
2019-05-06T10:55:44.354Z,3.62
2019-05-06T10:57:24.386Z,3.10
2019-05-06T10:58:28.912Z,2.72
2019-05-06T10:59:33.551Z,3.83
2019-05-06T11:00:38.714Z,3.40
2019-05-06T11:01:44.036Z,3.02
2019-05-06T11:03:12.141Z,3.40
2019-05-06T11:04:17.270Z,3.75
2019-05-06T11:05:22.046Z,3.08
2019-05-06T11:06:26.515Z,3.27
2019-05-06T11:07:35.261Z,3.15
2019-05-06T11:08:39.098Z,3.40
2019-05-06T11:09:48.453Z,3.05
2019-05-06T11:10:54.677Z,3.75
2019-05-06T11:11:59.329Z,3.80
2019-05-06T11:13:03.730Z,3.10
2019-05-06T11:14:08.585Z,3.33
2019-05-06T11:15:13.996Z,3.20
2019-05-06T11:16:19.168Z,3.02
2019-05-06T11:17:23.637Z,3.37
2019-05-06T11:18:28.317Z,3.47
2019-05-06T11:19:33.151Z,2.98
2019-05-06T11:20:38.338Z,3.22
2019-05-06T11:21:45.052Z,3.30
2019-05-06T11:22:49.194Z,2.95
2019-05-06T11:23:54.029Z,3.40
2019-05-06T11:24:58.592Z,3.72
2019-05-06T11:26:03.260Z,3.20
2019-05-06T11:27:23.666Z,3.65
2019-05-06T11:28:35.330Z,3.52
2019-05-06T11:29:43.531Z,3.75
2019-05-06T11:31:14.240Z,3.40
2019-05-06T11:32:27.942Z,3.70
2019-05-06T11:33:55.210Z,3.37
2019-05-06T11:35:08.053Z,4.22
2019-05-06T11:36:19.821Z,2.92
2019-05-06T11:37:49.707Z,3.15
2019-05-06T11:38:49.791Z,3.08
2019-05-06T11:39:54.468Z,3.42
2019-05-06T11:40:58.982Z,3.27
2019-05-06T11:42:23.785Z,3.30
2019-05-06T11:43:11.852Z,3.40
2019-05-06T11:44:15.778Z,3.20
2019-05-06T11:45:22.905Z,3.50
2019-05-06T11:46:27.393Z,3.50
2019-05-06T11:47:32.757Z,3.50
2019-05-06T11:48:37.216Z,3.70
2019-05-06T11:49:44.089Z,3.87
2019-05-06T11:50:50.704Z,3.83
2019-05-06T11:51:55.265Z,3.40
2019-05-06T11:53:02.308Z,4.12
2019-05-06T11:54:16.348Z,3.72
2019-05-06T11:55:27.555Z,4.35
2019-05-06T11:56:19.613Z,4.00
2019-05-06T11:57:24.159Z,4.08
2019-05-06T11:58:56.749Z,3.75
2019-05-06T12:00:03.146Z,3.08
2019-05-06T12:01:13.464Z,3.95
2019-05-06T12:02:20.214Z,4.12
2019-05-06T12:03:26.927Z,4.12
2019-05-06T12:04:32.897Z,4.45
2019-05-06T12:05:37.560Z,4.12
2019-05-06T12:06:42.636Z,3.77
2019-05-06T12:08:00.816Z,4.25
2019-05-06T12:08:53.721Z,4.92
2019-05-06T12:09:58.276Z,4.80
2019-05-06T12:11:03.099Z,5.15
2019-05-06T12:12:08.858Z,4.90
2019-05-06T12:13:13.380Z,4.65
2019-05-06T12:14:17.859Z,4.78
2019-05-06T12:15:23.582Z,5.83
2019-05-06T12:16:29.304Z,4.78
2019-05-06T12:17:34.103Z,4.08
2019-05-06T12:18:38.725Z,4.33
2019-05-06T12:19:47.695Z,5.15
2019-05-06T12:20:52.751Z,4.37
2019-05-06T12:21:57.532Z,4.40
2019-05-06T12:23:04.419Z,4.12
2019-05-06T12:24:08.302Z,4.47
2019-05-06T12:25:16.505Z,4.67
2019-05-06T12:26:21.030Z,4.60
2019-05-06T12:27:43.241Z,4.03
2019-05-06T12:28:47.955Z,5.62
2019-05-06T12:29:52.896Z,4.17
2019-05-06T12:30:59.115Z,4.37
2019-05-06T12:32:18.623Z,4.30
2019-05-06T12:33:35.786Z,4.75
2019-05-06T12:34:40.190Z,4.70
2019-05-06T12:35:47.657Z,4.67
2019-05-06T12:36:56.378Z,4.78
2019-05-06T12:38:06.767Z,4.65
2019-05-06T12:39:39.517Z,4.62
2019-05-06T12:40:44.056Z,5.05
2019-05-06T12:42:06.173Z,4.67
2019-05-06T12:43:44.873Z,4.90
2019-05-06T12:44:58.051Z,5.10
2019-05-06T12:46:16.982Z,4.83
2019-05-06T12:47:37.634Z,5.60
2019-05-06T12:48:43.980Z,5.10
2019-05-06T12:49:49.377Z,4.67
2019-05-06T12:50:54.020Z,5.17
2019-05-06T12:51:58.465Z,5.20
2019-05-06T12:53:03.193Z,6.05
2019-05-06T12:54:09.578Z,5.03
2019-05-06T12:55:21.329Z,5.45
2019-05-06T12:56:21.132Z,5.55
2019-05-06T12:57:26.585Z,5.35
2019-05-06T12:58:31.214Z,4.95
2019-05-06T12:59:36.217Z,5.15
2019-05-06T13:00:41.182Z,5.25
2019-05-06T13:01:48.925Z,5.40
2019-05-06T13:02:53.441Z,5.83
2019-05-06T13:03:58.035Z,5.97
2019-05-06T13:05:04.042Z,5.83
2019-05-06T13:06:09.267Z,5.58
2019-05-06T13:07:19.614Z,5.55
2019-05-06T13:08:28.564Z,5.05
2019-05-06T13:09:33.211Z,4.97
2019-05-06T13:10:37.994Z,5.30
2019-05-06T13:11:43.359Z,4.83
2019-05-06T13:12:54.137Z,5.75
2019-05-06T13:14:00.840Z,5.42
2019-05-06T13:15:08.115Z,5.55
2019-05-06T13:16:12.688Z,5.67
2019-05-06T13:17:22.766Z,6.40
2019-05-06T13:18:27.011Z,5.97
2019-05-06T13:19:32.365Z,6.90
2019-05-06T13:20:38.054Z,6.90
2019-05-06T13:21:42.699Z,6.62
2019-05-06T13:22:53.393Z,7.17
2019-05-06T13:24:04.657Z,7.53
2019-05-06T13:25:09.127Z,8.18
2019-05-06T13:26:14.279Z,7.22
2019-05-06T13:27:23.638Z,7.75
2019-05-06T13:28:33.322Z,7.03
2019-05-06T13:29:42.748Z,6.97
2019-05-06T13:30:49.109Z,7.70
2019-05-06T13:31:55.179Z,7.42
2019-05-06T13:33:05.786Z,7.75
2019-05-06T13:34:18.067Z,8.13
2019-05-06T13:35:23.265Z,8.48
2019-05-06T13:36:27.844Z,8.05
2019-05-06T13:37:33.614Z,8.88
2019-05-06T13:38:38.302Z,10.18
2019-05-06T13:39:44.950Z,10.13
2019-05-06T13:40:56.471Z,11.20
2019-05-06T13:41:55.905Z,10.43
2019-05-06T13:43:28.796Z,10.88
2019-05-06T13:44:33.373Z,11.10
2019-05-06T13:45:38.304Z,10.00
2019-05-06T13:46:52.888Z,10.38
2019-05-06T13:48:25.065Z,10.18
2019-05-06T13:49:48.640Z,8.80
2019-05-06T13:50:55.290Z,9.95
2019-05-06T13:52:13.310Z,10.03
2019-05-06T13:53:17.790Z,9.40
2019-05-06T13:54:23.758Z,10.13
2019-05-06T13:55:28.374Z,10.45
2019-05-06T13:56:33.335Z,10.58
2019-05-06T13:57:39.787Z,11.33
2019-05-06T13:58:44.296Z,11.35
2019-05-06T13:59:52.968Z,11.08
2019-05-06T14:00:56.914Z,10.38
2019-05-06T14:02:16.275Z,11.00
2019-05-06T14:03:21.206Z,11.28
2019-05-06T14:04:25.738Z,10.48
2019-05-06T14:05:30.170Z,10.38
2019-05-06T14:06:34.596Z,11.20
2019-05-06T14:07:39.176Z,11.15
2019-05-06T14:08:43.639Z,11.20
2019-05-06T14:09:48.180Z,11.18
2019-05-06T14:10:59.738Z,10.35
2019-05-06T14:11:58.867Z,11.30
2019-05-06T14:13:03.254Z,11.48
2019-05-06T14:14:07.771Z,11.50
2019-05-06T14:15:13.162Z,10.05
2019-05-06T14:16:17.622Z,10.23
2019-05-06T14:17:22.422Z,10.82
2019-05-06T14:18:27.065Z,10.05
2019-05-06T14:19:33.225Z,10.75
2019-05-06T14:20:38.060Z,10.80
2019-05-06T14:21:43.209Z,10.13
2019-05-06T14:22:48.039Z,9.83
2019-05-06T14:23:52.715Z,10.68
2019-05-06T14:25:14.718Z,10.03
2019-05-06T14:26:25.305Z,10.25
2019-05-06T14:27:29.717Z,10.13
2019-05-06T14:28:53.489Z,9.43
2019-05-06T14:30:04.632Z,9.53
2019-05-06T14:31:19.927Z,9.03
2019-05-06T14:32:24.344Z,8.98
2019-05-06T14:33:29.013Z,8.80
2019-05-06T14:34:34.604Z,8.40
2019-05-06T14:35:39.017Z,8.63
2019-05-06T14:36:44.566Z,8.13
2019-05-06T14:37:48.942Z,8.60
2019-05-06T14:38:53.541Z,8.78
2019-05-06T14:39:59.787Z,8.23
2019-05-06T14:41:12.875Z,8.13
2019-05-06T14:42:18.266Z,7.83
2019-05-06T14:43:22.909Z,7.85
2019-05-06T14:44:27.293Z,7.75
2019-05-06T14:45:33.289Z,8.28
2019-05-06T14:46:57.462Z,8.13
2019-05-06T14:48:02.915Z,7.87
2019-05-06T14:49:07.265Z,8.43
2019-05-06T14:50:14.572Z,8.05
2019-05-06T14:51:19.503Z,8.53
2019-05-06T14:52:23.935Z,8.30
2019-05-06T14:53:28.398Z,7.87
2019-05-06T14:54:33.214Z,7.87
2019-05-06T14:55:38.564Z,8.00
2019-05-06T14:56:53.384Z,7.80
2019-05-06T14:57:58.263Z,7.78
2019-05-06T14:59:07.598Z,7.12
2019-05-06T15:00:14.871Z,7.35
2019-05-06T15:01:19.434Z,8.20
2019-05-06T15:02:27.102Z,7.58
2019-05-06T15:03:32.623Z,7.85
2019-05-06T15:04:37.563Z,7.17
2019-05-06T15:05:42.740Z,7.00
2019-05-06T15:06:47.430Z,6.60
2019-05-06T15:07:52.871Z,6.42
2019-05-06T15:08:57.713Z,6.37
2019-05-06T15:10:19.163Z,6.42
2019-05-06T15:11:09.736Z,6.00
2019-05-06T15:12:14.600Z,6.42
2019-05-06T15:13:19.249Z,6.00
2019-05-06T15:14:23.731Z,5.60
2019-05-06T15:15:29.329Z,5.60